METAR és
SPECI
METAR LHBP 120900Z 12010KT CAVOK 05/M00 Q1009 NOSIG=
METAR LHBP 120830Z 11008KT CAVOK 05/00 Q1009 NOSIG=
METAR LHBP 120800Z 11008KT CAVOK 04/M00 Q1010 NOSIG=
METAR LHBP 120730Z 06004KT 030V090 9999 FEW047 03/M01 Q1010 NOSIG=
METAR LHBP 120700Z VRB02KT CAVOK M01/M03 Q1010 NOSIG=
METAR LHBP 120630Z VRB02KT CAVOK M03/M05 Q1010 NOSIG=
METAR LHBP 120600Z VRB03KT CAVOK M04/M05 Q1010 NOSIG=
METAR LHBP 120530Z VRB03KT CAVOK M05/M06 Q1010 NOSIG=
METAR LHBP 120500Z VRB03KT CAVOK M05/M06 Q1010 NOSIG=
METAR LHBP 120430Z VRB02KT CAVOK M04/M05 Q1010 NOSIG=
METAR LHBP 120400Z VRB02KT CAVOK M05/M06 Q1010 NOSIG=
METAR LHBP 120330Z 00000KT CAVOK M05/M06 Q1010 NOSIG=
METAR LHBP 120300Z VRB02KT CAVOK M04/M05 Q1010 NOSIG=
METAR LHBP 120230Z VRB01KT CAVOK M05/M06 Q1010 NOSIG=
METAR LHBP 120200Z VRB02KT CAVOK M03/M04 Q1010 NOSIG=
TAF
TAF LHBP 120500Z 1206/1306 VRB03KT CAVOK BECMG 1208/1211 14008KT BECMG 1216/1218 10008KT BKN040 TEMPO 1216/1306 -RA SCT010 BKN030=
GAMET
FAHU41 LHBM 120500
LHCC GAMET VALID 120600/121200 LHBP-
BUDAPEST FIR BLW FL100
SECN 1
ICE: 10/12 MOD 7000/10000 FT AMSL W OF E01730
SIGMETS APPLICABLE: NIL=
OMSZ: 2016. február 12. 05:54 (04:54  UTC)
[FAHU41]
AIRMET
Nincs érvényes távirat! 
WAHU41 LHBM 231515
LHCC AIRMET 01 VALID 231515/231800 LHBP-
LHCC BUDAPEST FIR SFC VIS 1000-4000 M IN SN BR AND BKN/OVC CLD
500-1000/XXX FT AGL FCST W OF E01830 MOV E NC=
OMSZ: 2016. január 23. 16:24 (15:24  UTC)
[WAHU41]
SIGMET
Nincs érvényes távirat! 
WSHU31 LHBM 101215
LHCC SIGMET 05 VALID 101215/101515 LHBP-
LHCC BUDAPEST FIR SEV ICE FCST 7000FT/FL120
NE OF LINE N4748 E01847 - N4607 E02020 MOV NE WKN=
OMSZ: 2016. február 10. 13:14 (12:14  UTC)
[WSHU31]
SIGMET
Vulkáni hamufelhő
Nincs érvényes távirat! 
WVHU31 LHBM 271515 CCA
LHCC SIGMET 03 VALID 271515/271800 LHBP-
LHCC BUDAPEST FIR EXERCISE VOLCEX12/01
CNL VA SIGMET 02 271200/271800
EXERCISE EXERCISE EXERCISE VOLCEX12/01=
OMSZ: 2015. április 14. 14:15 (13:15  UTC)
[WVHU31]